Time;durP1;ratioP1;P1;durP2;ratioP2;P2;SDS_P1;SDS_P2;PMS_P1;PMS_P2;Temp;Humidity;BMP_temperature;BMP_pressure;BME280_temperature;BME280_humidity;BME280_pressure;Samples;Min_cycle;Max_cycle;Signal;HPM_P1;HPM_P2
2022/11/01 00:01:30;;;;;;;;;8.25;6.00;;;;;;;;5024877;28;51245;-58
2022/11/01 00:04:14;;;;;;;;;9.75;7.75;;;;;;;;5019040;28;51049;-59
2022/11/01 00:06:59;;;;;;;;;10.25;7.50;;;;;;;;5036954;28;51254;-59
2022/11/01 00:09:43;;;;;;;;;8.50;8.50;;;;;;;;5038625;28;51384;-57
2022/11/01 00:12:29;;;;;;;;;13.75;6.75;;;;;;;;5038040;28;51011;-58
2022/11/01 00:15:13;;;;;;;;;13.75;10.25;;;;;;;;5027931;28;51251;-57
2022/11/01 00:17:58;;;;;;;;;8.75;8.25;;;;;;;;5041051;28;51213;-58
2022/11/01 00:20:42;;;;;;;;;9.50;7.75;;;;;;;;5030308;28;51121;-57
2022/11/01 00:23:26;;;;;;;;;9.25;8.00;;;;;;;;5041856;28;51175;-59
2022/11/01 00:26:15;;;;;;;;;9.75;8.25;;;;;;;;5030234;28;51125;-58
2022/11/01 00:28:59;;;;;;;;;12.00;7.25;;;;;;;;5035694;28;51547;-59
2022/11/01 00:31:44;;;;;;;;;7.25;7.25;;;;;;;;5028348;28;51166;-61
2022/11/01 00:34:28;;;;;;;;;9.75;6.25;;;;;;;;5039663;28;51065;-58
2022/11/01 00:37:13;;;;;;;;;12.75;8.25;;;;;;;;5026098;28;51127;-59
2022/11/01 00:39:57;;;;;;;;;13.00;8.00;;;;;;;;5042162;28;51378;-59
2022/11/01 00:42:42;;;;;;;;;12.75;9.00;;;;;;;;5040610;28;51164;-59
2022/11/01 00:45:26;;;;;;;;;11.00;8.00;;;;;;;;5037724;28;51163;-60
2022/11/01 00:48:13;;;;;;;;;13.00;7.50;;;;;;;;5040644;28;51176;-59
2022/11/01 00:50:58;;;;;;;;;14.25;8.00;;;;;;;;5041185;28;51097;-58
2022/11/01 00:53:42;;;;;;;;;8.50;6.00;;;;;;;;5037016;28;51349;-58
2022/11/01 00:56:27;;;;;;;;;12.75;7.75;;;;;;;;5036374;28;51061;-59
2022/11/01 00:59:11;;;;;;;;;12.00;6.25;;;;;;;;5036447;28;51569;-59
2022/11/01 01:01:55;;;;;;;;;8.00;6.50;;;;;;;;5023282;28;51135;-59
2022/11/01 01:04:42;;;;;;;;;11.50;7.00;;;;;;;;5022945;28;51299;-58
2022/11/01 01:07:26;;;;;;;;;15.00;7.50;;;;;;;;5036634;28;51073;-60
2022/11/01 01:10:10;;;;;;;;;11.25;7.25;;;;;;;;5032646;28;50991;-58
2022/11/01 01:12:55;;;;;;;;;9.00;8.00;;;;;;;;5039272;28;51177;-58
2022/11/01 01:15:40;;;;;;;;;9.75;8.75;;;;;;;;5034177;28;51374;-58
2022/11/01 01:18:24;;;;;;;;;15.50;9.25;;;;;;;;5025401;28;51133;-58
2022/11/01 01:21:09;;;;;;;;;15.50;9.75;;;;;;;;5038826;28;51136;-57
2022/11/01 01:23:53;;;;;;;;;9.75;7.75;;;;;;;;5039875;28;51550;-58
2022/11/01 01:26:38;;;;;;;;;11.00;5.50;;;;;;;;5025600;28;51188;-57
2022/11/01 01:29:22;;;;;;;;;11.75;7.75;;;;;;;;5030080;28;51402;-58
2022/11/01 01:32:13;;;;;;;;;11.00;8.00;;;;;;;;5032319;28;51125;-58
2022/11/01 01:34:58;;;;;;;;;10.25;7.25;;;;;;;;5029054;28;51568;-58
2022/11/01 01:37:42;;;;;;;;;9.50;7.50;;;;;;;;5021559;28;51125;-58
2022/11/01 01:40:26;;;;;;;;;8.00;8.00;;;;;;;;5021232;28;51387;-60
2022/11/01 01:43:11;;;;;;;;;8.50;5.75;;;;;;;;5035185;28;51121;-58
2022/11/01 01:45:55;;;;;;;;;14.00;9.00;;;;;;;;5038990;28;51203;-60
2022/11/01 01:48:41;;;;;;;;;10.00;8.50;;;;;;;;5038492;28;51045;-56
2022/11/01 01:51:27;;;;;;;;;9.75;7.75;;;;;;;;5026552;28;51088;-60
2022/11/01 01:54:11;;;;;;;;;11.50;8.25;;;;;;;;5040642;28;51315;-59
2022/11/01 01:56:55;;;;;;;;;11.25;8.00;;;;;;;;5030883;28;51219;-57
2022/11/01 01:59:40;;;;;;;;;8.75;8.00;;;;;;;;5029498;28;51549;-58
2022/11/01 02:02:24;;;;;;;;;10.00;9.25;;;;;;;;5037769;28;51037;-59
2022/11/01 02:05:27;;;;;;;;;8.25;8.00;;;;;;;;5038262;28;51155;-58
2022/11/01 02:08:11;;;;;;;;;10.25;7.00;;;;;;;;5032424;28;51124;-57
2022/11/01 02:10:58;;;;;;;;;7.75;7.75;;;;;;;;5039862;28;51172;-58
2022/11/01 02:13:42;;;;;;;;;12.75;9.50;;;;;;;;5039115;28;51012;-58
2022/11/01 02:16:27;;;;;;;;;13.00;8.25;;;;;;;;5031956;28;51065;-59
2022/11/01 02:19:30;;;;;;;;;10.75;9.00;;;;;;;;5030173;28;51132;-58
2022/11/01 02:22:33;;;;;;;;;11.00;7.00;;;;;;;;5022305;28;51115;-58
2022/11/01 02:25:35;;;;;;;;;9.00;8.25;;;;;;;;5022074;28;51554;-59
2022/11/01 02:28:21;;;;;;;;;12.00;7.75;;;;;;;;5034055;28;51129;-57
2022/11/01 02:31:23;;;;;;;;;10.25;7.50;;;;;;;;5026651;28;51387;-58
2022/11/01 02:34:23;;;;;;;;;11.00;9.25;;;;;;;;5039019;28;51111;-58
2022/11/01 02:37:07;;;;;;;;;6.00;6.00;;;;;;;;5034483;28;51158;-60
2022/11/01 02:39:54;;;;;;;;;9.75;8.50;;;;;;;;5024170;28;51135;-59
2022/11/01 02:42:42;;;;;;;;;13.50;9.75;;;;;;;;5022817;28;51236;-56
2022/11/01 02:45:29;;;;;;;;;13.75;9.00;;;;;;;;5037241;28;51475;-58
2022/11/01 02:48:15;;;;;;;;;13.25;8.50;;;;;;;;5028468;28;51124;-59
2022/11/01 02:50:59;;;;;;;;;12.50;7.75;;;;;;;;5038109;28;51076;-59
2022/11/01 02:53:43;;;;;;;;;14.50;8.50;;;;;;;;5021844;28;51172;-57
2022/11/01 02:56:28;;;;;;;;;12.00;10.00;;;;;;;;5033544;28;51111;-57
2022/11/01 02:59:35;;;;;;;;;11.00;8.25;;;;;;;;5038640;28;51096;-59
2022/11/01 03:02:38;;;;;;;;;9.75;7.75;;;;;;;;5027369;28;50979;-60
2022/11/01 03:05:29;;;;;;;;;10.50;9.00;;;;;;;;5026702;28;52085;-59
2022/11/01 03:08:16;;;;;;;;;11.25;8.25;;;;;;;;5035248;28;51148;-59
2022/11/01 03:11:00;;;;;;;;;13.00;9.50;;;;;;;;5037530;28;51070;-59
2022/11/01 03:13:59;;;;;;;;;14.75;9.00;;;;;;;;5038098;28;51253;-57
2022/11/01 03:16:46;;;;;;;;;9.00;8.00;;;;;;;;5026124;28;51180;-59
2022/11/01 03:19:50;;;;;;;;;15.00;9.00;;;;;;;;5037310;28;51120;-59
2022/11/01 03:22:43;;;;;;;;;10.00;8.75;;;;;;;;5035457;28;51147;-58
2022/11/01 03:25:43;;;;;;;;;11.00;9.00;;;;;;;;5033573;28;51493;-59
2022/11/01 03:28:35;;;;;;;;;10.25;9.00;;;;;;;;5025833;28;51148;-58
2022/11/01 03:31:21;;;;;;;;;11.00;8.50;;;;;;;;5024643;28;51343;-58
2022/11/01 03:34:09;;;;;;;;;11.75;10.25;;;;;;;;5024680;28;51089;-59
2022/11/01 03:36:56;;;;;;;;;11.00;9.00;;;;;;;;5038022;28;51129;-58
2022/11/01 03:39:45;;;;;;;;;40.50;32.00;;;;;;;;5029002;28;51127;-57
2022/11/01 03:42:30;;;;;;;;;46.00;35.75;;;;;;;;5032642;28;51175;-58
2022/11/01 03:45:17;;;;;;;;;44.25;36.00;;;;;;;;5037255;28;51129;-58
2022/11/01 03:48:01;;;;;;;;;43.00;35.75;;;;;;;;5036995;28;51254;-58
2022/11/01 03:50:47;;;;;;;;;45.00;36.25;;;;;;;;5038028;28;51172;-58
2022/11/01 03:53:31;;;;;;;;;40.25;33.00;;;;;;;;5038071;28;51040;-58
2022/11/01 03:56:15;;;;;;;;;47.00;36.25;;;;;;;;5038486;28;51397;-58
2022/11/01 03:59:00;;;;;;;;;43.75;35.75;;;;;;;;5026285;28;52306;-59
2022/11/01 04:01:44;;;;;;;;;47.75;36.00;;;;;;;;5034259;28;51057;-59
2022/11/01 04:04:28;;;;;;;;;48.00;37.50;;;;;;;;5027533;28;51049;-58
2022/11/01 04:07:13;;;;;;;;;38.25;33.75;;;;;;;;5041085;28;51123;-59
2022/11/01 04:09:57;;;;;;;;;40.25;34.00;;;;;;;;5022796;28;51165;-58
2022/11/01 04:12:45;;;;;;;;;39.00;33.25;;;;;;;;5036013;28;51673;-57
2022/11/01 04:21:35;;;;;;;;;39.50;33.00;;;;;;;;5026371;28;50978;-58
2022/11/01 04:24:19;;;;;;;;;44.00;33.75;;;;;;;;5029461;28;51192;-60
2022/11/01 04:27:03;;;;;;;;;40.25;33.50;;;;;;;;5040078;28;51852;-57
2022/11/01 04:29:48;;;;;;;;;36.00;32.00;;;;;;;;5040686;28;51179;-58
2022/11/01 04:32:32;;;;;;;;;40.25;33.50;;;;;;;;5038614;28;51428;-58
2022/11/01 04:35:17;;;;;;;;;43.50;34.00;;;;;;;;5034920;28;51063;-59
2022/11/01 04:38:01;;;;;;;;;40.25;32.25;;;;;;;;5042241;28;51527;-60
2022/11/01 04:40:45;;;;;;;;;42.50;33.25;;;;;;;;5036988;28;51255;-58
2022/11/01 04:43:29;;;;;;;;;37.00;33.50;;;;;;;;5011717;28;51166;-58
2022/11/01 04:46:14;;;;;;;;;36.75;31.75;;;;;;;;5023110;28;51184;-60
2022/11/01 04:48:58;;;;;;;;;44.00;33.25;;;;;;;;5026547;28;50986;-56
2022/11/01 04:51:43;;;;;;;;;40.00;34.25;;;;;;;;5031689;28;51315;-60
2022/11/01 04:54:32;;;;;;;;;45.00;34.50;;;;;;;;5031567;28;51186;-59
2022/11/01 04:57:23;;;;;;;;;39.50;32.50;;;;;;;;5040510;28;51142;-58
2022/11/01 05:00:10;;;;;;;;;38.75;32.25;;;;;;;;5039003;28;51160;-60
2022/11/01 05:02:59;;;;;;;;;40.25;32.25;;;;;;;;5034715;28;51617;-58
2022/11/01 05:05:43;;;;;;;;;43.50;35.00;;;;;;;;5031185;28;51356;-58
2022/11/01 05:08:27;;;;;;;;;55.75;42.00;;;;;;;;5030766;28;51167;-59
2022/11/01 05:11:12;;;;;;;;;74.25;56.25;;;;;;;;5032131;28;51156;-58
2022/11/01 05:13:56;;;;;;;;;115.75;99.50;;;;;;;;5036035;28;51180;-59
2022/11/01 05:16:41;;;;;;;;;126.50;107.50;;;;;;;;5028576;28;51170;-58
2022/11/01 05:19:25;;;;;;;;;98.25;77.50;;;;;;;;5040889;28;51159;-60
2022/11/01 05:22:09;;;;;;;;;70.50;53.25;;;;;;;;5025608;28;51518;-57
2022/11/01 05:24:54;;;;;;;;;60.00;46.00;;;;;;;;5035347;28;51192;-60
2022/11/01 05:27:38;;;;;;;;;49.00;41.00;;;;;;;;5037991;28;51080;-59
2022/11/01 05:30:23;;;;;;;;;50.25;40.00;;;;;;;;5029813;28;51274;-59
2022/11/01 05:33:09;;;;;;;;;49.50;37.75;;;;;;;;5038253;28;51224;-59
2022/11/01 05:35:53;;;;;;;;;47.00;38.75;;;;;;;;5035838;28;51293;-59
2022/11/01 05:38:38;;;;;;;;;46.50;33.25;;;;;;;;5038694;28;51080;-59
2022/11/01 05:41:22;;;;;;;;;40.50;34.75;;;;;;;;5030796;28;51174;-59
2022/11/01 05:44:06;;;;;;;;;36.00;31.50;;;;;;;;5040833;28;51053;-58
2022/11/01 05:46:51;;;;;;;;;45.25;34.75;;;;;;;;5025248;28;51069;-59
2022/11/01 05:49:35;;;;;;;;;48.75;37.50;;;;;;;;5030011;28;51145;-58
2022/11/01 05:52:20;;;;;;;;;43.50;36.25;;;;;;;;5036159;28;51351;-58
2022/11/01 05:55:05;;;;;;;;;37.50;32.50;;;;;;;;5023961;28;51192;-60
2022/11/01 05:57:56;;;;;;;;;43.25;36.00;;;;;;;;5030254;28;51161;-57
2022/11/01 06:00:40;;;;;;;;;48.00;35.50;;;;;;;;5022982;28;51090;-57
2022/11/01 06:03:25;;;;;;;;;44.50;34.50;;;;;;;;5030205;28;51179;-59
2022/11/01 06:06:10;;;;;;;;;44.75;36.00;;;;;;;;5029461;28;51002;-59
2022/11/01 06:08:58;;;;;;;;;48.25;38.25;;;;;;;;5040480;28;51630;-58
2022/11/01 06:11:43;;;;;;;;;47.25;38.50;;;;;;;;5037777;28;51196;-58
2022/11/01 06:14:27;;;;;;;;;45.00;35.25;;;;;;;;5039163;28;51133;-58
2022/11/01 06:17:12;;;;;;;;;45.25;36.00;;;;;;;;5035377;28;51401;-58
2022/11/01 06:19:56;;;;;;;;;41.50;32.25;;;;;;;;5036084;28;51284;-60
2022/11/01 06:22:41;;;;;;;;;43.00;35.00;;;;;;;;5026499;28;51091;-59
2022/11/01 06:25:26;;;;;;;;;42.75;34.50;;;;;;;;5019277;28;51298;-58
2022/11/01 06:28:10;;;;;;;;;41.00;33.50;;;;;;;;5035888;28;51248;-58
2022/11/01 06:30:54;;;;;;;;;47.75;37.25;;;;;;;;5021145;28;51113;-58
2022/11/01 06:33:39;;;;;;;;;43.25;36.00;;;;;;;;5026428;28;51038;-59
2022/11/01 06:36:23;;;;;;;;;38.50;32.50;;;;;;;;5032296;28;51112;-61
2022/11/01 06:39:09;;;;;;;;;36.25;31.25;;;;;;;;5036221;28;51148;-59
2022/11/01 06:41:53;;;;;;;;;35.75;30.50;;;;;;;;5033850;28;51607;-59
2022/11/01 06:44:38;;;;;;;;;40.25;33.50;;;;;;;;5035866;28;51309;-59
2022/11/01 06:47:22;;;;;;;;;38.00;29.75;;;;;;;;5039054;28;51148;-59
2022/11/01 06:50:07;;;;;;;;;42.50;33.50;;;;;;;;5033390;28;51109;-59
2022/11/01 06:52:54;;;;;;;;;41.50;33.50;;;;;;;;5030604;28;51589;-58
2022/11/01 06:55:38;;;;;;;;;42.50;31.25;;;;;;;;5026275;28;51047;-58
2022/11/01 06:58:22;;;;;;;;;43.75;32.75;;;;;;;;5026387;28;51182;-58
2022/11/01 07:01:06;;;;;;;;;45.50;34.75;;;;;;;;5025402;28;51373;-58
2022/11/01 07:03:51;;;;;;;;;35.25;29.50;;;;;;;;5035065;28;51142;-59
2022/11/01 07:06:36;;;;;;;;;32.25;29.00;;;;;;;;5038773;28;51433;-47
2022/11/01 07:09:21;;;;;;;;;36.50;29.75;;;;;;;;5039235;28;50963;-44
2022/11/01 07:12:05;;;;;;;;;35.00;30.00;;;;;;;;5039335;28;51134;-46
2022/11/01 07:14:49;;;;;;;;;35.00;31.50;;;;;;;;5038201;28;51402;-48
2022/11/01 07:17:33;;;;;;;;;39.25;31.50;;;;;;;;5031215;28;51560;-42
2022/11/01 07:20:18;;;;;;;;;36.50;32.25;;;;;;;;5020154;28;51340;-45
2022/11/01 07:23:03;;;;;;;;;35.75;28.75;;;;;;;;5025632;28;53391;-42
2022/11/01 07:25:51;;;;;;;;;40.00;32.00;;;;;;;;5018206;28;51264;-44
2022/11/01 07:28:36;;;;;;;;;37.75;32.00;;;;;;;;5038074;28;51051;-49
2022/11/01 07:31:20;;;;;;;;;34.00;30.25;;;;;;;;5038496;28;51186;-43
2022/11/01 07:34:04;;;;;;;;;37.00;30.50;;;;;;;;5038640;28;51147;-46
2022/11/01 07:36:51;;;;;;;;;44.50;35.25;;;;;;;;5038890;28;51108;-47
2022/11/01 07:39:35;;;;;;;;;42.00;31.50;;;;;;;;5029588;28;51418;-45
2022/11/01 07:42:19;;;;;;;;;35.25;32.00;;;;;;;;5037100;28;51100;-44
2022/11/01 07:45:04;;;;;;;;;39.00;32.75;;;;;;;;5034506;28;51191;-45
2022/11/01 07:47:49;;;;;;;;;41.50;31.50;;;;;;;;5030003;28;51113;-45
2022/11/01 07:50:33;;;;;;;;;37.00;31.25;;;;;;;;5039033;28;51615;-46
2022/11/01 07:53:18;;;;;;;;;24.50;20.50;;;;;;;;5033387;28;51443;-44
2022/11/01 07:56:02;;;;;;;;;43.00;33.50;;;;;;;;5038317;28;51473;-46
2022/11/01 07:58:46;;;;;;;;;44.50;34.50;;;;;;;;5035641;28;51076;-45
2022/11/01 08:01:30;;;;;;;;;37.00;31.25;;;;;;;;5024036;28;51112;-50
2022/11/01 08:04:15;;;;;;;;;35.00;31.50;;;;;;;;5038822;28;51351;-43
2022/11/01 08:06:59;;;;;;;;;34.75;31.75;;;;;;;;5022933;28;51228;-50
2022/11/01 08:09:44;;;;;;;;;42.25;33.25;;;;;;;;5037445;28;51136;-49
2022/11/01 08:12:28;;;;;;;;;45.00;36.50;;;;;;;;5038898;28;51155;-44
2022/11/01 08:15:12;;;;;;;;;43.00;35.75;;;;;;;;5026017;28;51182;-43
2022/11/01 08:17:57;;;;;;;;;40.00;32.75;;;;;;;;5018870;28;51218;-45
2022/11/01 08:20:42;;;;;;;;;44.75;32.50;;;;;;;;5019024;28;51498;-46
2022/11/01 08:23:26;;;;;;;;;45.00;35.50;;;;;;;;5035003;28;51162;-49
2022/11/01 08:26:11;;;;;;;;;35.50;30.50;;;;;;;;5024334;28;51427;-45
2022/11/01 08:28:55;;;;;;;;;26.00;20.75;;;;;;;;5019350;28;51521;-43
2022/11/01 08:31:40;;;;;;;;;20.50;18.25;;;;;;;;5022722;28;51134;-46
2022/11/01 08:34:24;;;;;;;;;14.75;14.00;;;;;;;;5017943;28;51046;-47
2022/11/01 08:37:08;;;;;;;;;16.50;13.25;;;;;;;;5036450;28;51181;-49
2022/11/01 08:39:53;;;;;;;;;17.50;16.25;;;;;;;;5041341;28;51181;-45
2022/11/01 08:42:38;;;;;;;;;16.00;13.50;;;;;;;;5036780;28;52266;-42
2022/11/01 08:45:22;;;;;;;;;20.75;17.25;;;;;;;;5023083;28;51313;-41
2022/11/01 08:48:08;;;;;;;;;16.50;16.50;;;;;;;;5030059;28;51083;-44
2022/11/01 08:50:52;;;;;;;;;18.25;17.25;;;;;;;;5021521;28;51141;-46
2022/11/01 08:53:36;;;;;;;;;21.25;16.75;;;;;;;;5040819;28;51523;-44
2022/11/01 08:56:23;;;;;;;;;18.50;14.75;;;;;;;;5040963;28;51346;-44
2022/11/01 08:59:07;;;;;;;;;13.00;11.50;;;;;;;;5041061;28;51107;-47
2022/11/01 09:01:51;;;;;;;;;19.75;15.00;;;;;;;;5041013;28;51402;-50
2022/11/01 09:04:36;;;;;;;;;14.25;12.00;;;;;;;;5031739;28;51116;-44
2022/11/01 09:07:20;;;;;;;;;12.50;10.50;;;;;;;;5041407;28;51215;-48
2022/11/01 09:10:05;;;;;;;;;15.75;14.25;;;;;;;;5029979;28;51563;-45
2022/11/01 09:12:50;;;;;;;;;15.00;13.00;;;;;;;;5039234;28;51087;-43
2022/11/01 09:15:34;;;;;;;;;13.50;11.25;;;;;;;;5031619;28;51626;-46
2022/11/01 09:18:18;;;;;;;;;15.50;13.00;;;;;;;;5029230;28;51447;-48
2022/11/01 09:21:03;;;;;;;;;15.75;13.50;;;;;;;;5035965;28;51651;-45
2022/11/01 09:23:47;;;;;;;;;15.50;12.25;;;;;;;;5037967;28;51150;-47
2022/11/01 09:26:32;;;;;;;;;19.50;17.50;;;;;;;;5030616;28;51157;-43
2022/11/01 09:29:17;;;;;;;;;16.25;13.50;;;;;;;;5038559;28;51109;-43
2022/11/01 09:32:02;;;;;;;;;21.50;14.00;;;;;;;;5031545;28;51113;-48
2022/11/01 09:34:47;;;;;;;;;15.50;13.50;;;;;;;;5020220;28;51364;-44
2022/11/01 09:37:32;;;;;;;;;12.50;11.00;;;;;;;;5022226;28;51159;-44
2022/11/01 09:40:16;;;;;;;;;15.00;10.25;;;;;;;;5040524;28;51151;-43
2022/11/01 09:43:02;;;;;;;;;12.50;11.50;;;;;;;;5039720;28;51096;-43
2022/11/01 09:45:47;;;;;;;;;19.50;13.75;;;;;;;;5040907;28;51328;-47
2022/11/01 09:48:33;;;;;;;;;18.00;17.00;;;;;;;;5027845;28;51158;-46
2022/11/01 09:51:21;;;;;;;;;14.75;11.50;;;;;;;;5025554;28;51143;-41
2022/11/01 09:54:07;;;;;;;;;12.00;11.25;;;;;;;;5034101;28;51066;-47
2022/11/01 09:56:51;;;;;;;;;23.25;15.00;;;;;;;;5039945;28;51130;-44
2022/11/01 09:59:35;;;;;;;;;14.50;12.50;;;;;;;;5034792;28;50994;-48
2022/11/01 10:02:48;;;;;;;;;17.25;11.75;;;;;;;;5014880;28;51158;-42
2022/11/01 10:05:33;;;;;;;;;18.00;12.75;;;;;;;;5007785;28;51061;-44
2022/11/01 10:08:46;;;;;;;;;14.50;13.75;;;;;;;;5036699;28;51296;-50
2022/11/01 10:11:34;;;;;;;;;15.50;15.00;;;;;;;;4973601;28;51509;-42
2022/11/01 10:14:35;;;;;;;;;20.25;14.75;;;;;;;;5028357;28;51230;-44
2022/11/01 10:17:46;;;;;;;;;31.75;23.00;;;;;;;;5020648;28;51325;-47
2022/11/01 10:20:32;;;;;;;;;21.50;18.00;;;;;;;;5031242;28;51068;-47
2022/11/01 10:23:17;;;;;;;;;25.75;19.25;;;;;;;;5035562;28;51050;-48
2022/11/01 10:26:02;;;;;;;;;18.75;17.75;;;;;;;;5038891;28;51468;-44
2022/11/01 10:29:22;;;;;;;;;17.50;16.00;;;;;;;;5036873;28;51211;-50
2022/11/01 10:32:27;;;;;;;;;20.00;16.50;;;;;;;;4935196;28;51249;-45
2022/11/01 10:35:17;;;;;;;;;23.25;17.75;;;;;;;;5003678;28;51519;-43
2022/11/01 10:38:06;;;;;;;;;15.25;14.25;;;;;;;;5018942;28;51481;-42
2022/11/01 10:41:04;;;;;;;;;18.25;13.25;;;;;;;;5035289;28;51178;-43
2022/11/01 10:44:00;;;;;;;;;17.75;12.50;;;;;;;;5039294;28;51160;-43
2022/11/01 10:46:46;;;;;;;;;17.00;14.00;;;;;;;;5029747;28;52124;-49
2022/11/01 10:49:36;;;;;;;;;18.25;16.00;;;;;;;;5018825;28;51177;-46
2022/11/01 10:52:25;;;;;;;;;21.50;13.75;;;;;;;;5019196;28;51146;-46
2022/11/01 10:55:12;;;;;;;;;22.25;14.50;;;;;;;;5023376;28;51191;-43
2022/11/01 10:58:05;;;;;;;;;23.00;17.00;;;;;;;;5025529;28;51071;-47
2022/11/01 11:00:51;;;;;;;;;21.00;17.25;;;;;;;;5027031;28;51779;-46
2022/11/01 11:03:37;;;;;;;;;14.75;11.75;;;;;;;;5034144;28;51371;-53
2022/11/01 11:06:21;;;;;;;;;14.50;13.00;;;;;;;;5039844;28;50961;-49
2022/11/01 11:09:06;;;;;;;;;19.00;16.00;;;;;;;;5040150;28;51093;-46
2022/11/01 11:11:52;;;;;;;;;14.75;14.75;;;;;;;;5031047;28;51434;-47
2022/11/01 11:14:38;;;;;;;;;13.50;12.75;;;;;;;;5003981;28;51162;-45
2022/11/01 11:17:29;;;;;;;;;18.00;15.00;;;;;;;;5027065;28;51829;-45
2022/11/01 11:20:19;;;;;;;;;10.25;9.25;;;;;;;;5002471;28;51381;-46
2022/11/01 11:23:08;;;;;;;;;25.50;22.50;;;;;;;;5019419;28;51461;-48
2022/11/01 11:25:52;;;;;;;;;18.50;12.50;;;;;;;;5024228;28;51029;-45
2022/11/01 11:28:43;;;;;;;;;20.00;15.50;;;;;;;;5028438;28;51460;-48
2022/11/01 11:31:30;;;;;;;;;21.50;17.25;;;;;;;;5036910;28;51220;-45
2022/11/01 11:34:21;;;;;;;;;21.75;16.75;;;;;;;;5026247;28;51023;-48
2022/11/01 11:37:06;;;;;;;;;20.00;15.25;;;;;;;;5026537;28;51329;-46
2022/11/01 11:40:05;;;;;;;;;24.00;17.25;;;;;;;;5030609;28;51141;-45
2022/11/01 11:42:51;;;;;;;;;20.00;15.50;;;;;;;;5020367;28;51491;-45
2022/11/01 11:45:35;;;;;;;;;21.25;17.50;;;;;;;;5027581;28;51278;-44
2022/11/01 11:48:21;;;;;;;;;19.00;14.50;;;;;;;;5026288;28;53279;-44
2022/11/01 11:51:06;;;;;;;;;16.25;12.50;;;;;;;;5031026;28;51468;-41
2022/11/01 11:54:08;;;;;;;;;15.25;12.50;;;;;;;;5030403;28;51499;-43
2022/11/01 11:57:07;;;;;;;;;16.75;13.25;;;;;;;;5038559;28;51310;-44
2022/11/01 11:59:53;;;;;;;;;15.50;12.75;;;;;;;;5034370;28;51563;-45
2022/11/01 12:02:39;;;;;;;;;12.25;12.00;;;;;;;;5022893;28;50994;-43
2022/11/01 12:05:25;;;;;;;;;21.00;18.25;;;;;;;;5024101;28;51263;-47
2022/11/01 12:08:21;;;;;;;;;16.50;13.00;;;;;;;;5020619;28;51344;-44
2022/11/01 12:11:06;;;;;;;;;15.50;13.25;;;;;;;;5024651;28;51224;-49
2022/11/01 12:14:02;;;;;;;;;17.00;15.75;;;;;;;;5024949;28;51090;-48
2022/11/01 12:16:47;;;;;;;;;17.00;13.00;;;;;;;;5028889;28;51083;-41
2022/11/01 12:19:31;;;;;;;;;18.00;13.00;;;;;;;;5026254;28;51248;-48
2022/11/01 12:22:16;;;;;;;;;17.00;15.00;;;;;;;;5027740;28;51126;-46
2022/11/01 12:25:04;;;;;;;;;17.50;14.00;;;;;;;;5028077;28;51145;-46
2022/11/01 12:27:54;;;;;;;;;15.50;13.00;;;;;;;;5022324;28;51549;-42
2022/11/01 12:30:40;;;;;;;;;14.25;14.25;;;;;;;;5041420;28;51193;-43
2022/11/01 12:33:43;;;;;;;;;12.25;12.25;;;;;;;;5023575;28;51126;-45
2022/11/01 12:36:30;;;;;;;;;4.50;4.50;;;;;;;;5035717;28;51155;-41
2022/11/01 12:39:34;;;;;;;;;14.75;12.00;;;;;;;;5022379;28;51104;-42
2022/11/01 12:42:24;;;;;;;;;19.25;14.00;;;;;;;;5036105;28;51501;-45
2022/11/01 12:45:07;;;;;;;;;13.50;12.50;;;;;;;;5021661;28;51447;-48
2022/11/01 12:47:54;;;;;;;;;18.25;15.00;;;;;;;;5033903;28;51042;-46
2022/11/01 12:51:01;;;;;;;;;15.75;13.00;;;;;;;;5039780;28;51454;-47
2022/11/01 12:53:49;;;;;;;;;12.50;12.50;;;;;;;;5009346;28;51085;-42
2022/11/01 12:56:33;;;;;;;;;16.25;12.75;;;;;;;;5025695;28;51085;-44
2022/11/01 12:59:21;;;;;;;;;13.50;11.75;;;;;;;;5037812;28;51191;-41
2022/11/01 13:02:18;;;;;;;;;16.75;12.75;;;;;;;;5039853;28;51143;-44
2022/11/01 13:05:05;;;;;;;;;14.50;12.75;;;;;;;;5041184;28;51121;-48
2022/11/01 13:07:55;;;;;;;;;13.50;10.25;;;;;;;;5038323;28;51076;-43
2022/11/01 13:10:42;;;;;;;;;13.00;11.25;;;;;;;;5028195;28;51343;-45
2022/11/01 13:13:26;;;;;;;;;15.25;11.75;;;;;;;;5034175;28;51167;-45
2022/11/01 13:16:17;;;;;;;;;15.50;14.50;;;;;;;;5024390;28;50959;-44
2022/11/01 13:19:08;;;;;;;;;17.25;13.75;;;;;;;;5022798;28;51193;-45
2022/11/01 13:21:56;;;;;;;;;11.00;9.50;;;;;;;;5028798;28;51137;-44
2022/11/01 13:24:40;;;;;;;;;17.25;12.25;;;;;;;;5031209;28;51174;-41
2022/11/01 13:27:32;;;;;;;;;11.75;8.50;;;;;;;;5017221;28;51182;-45
2022/11/01 13:30:18;;;;;;;;;16.00;14.75;;;;;;;;5036993;28;51567;-43
2022/11/01 13:33:13;;;;;;;;;19.25;13.00;;;;;;;;5028001;28;51049;-50
2022/11/01 13:36:04;;;;;;;;;18.25;11.75;;;;;;;;5026125;28;51451;-44
2022/11/01 13:39:07;;;;;;;;;15.75;11.25;;;;;;;;5032449;28;51205;-46
2022/11/01 13:42:03;;;;;;;;;15.75;11.25;;;;;;;;5033884;28;51085;-42
2022/11/01 13:45:04;;;;;;;;;13.00;9.75;;;;;;;;5023504;28;51129;-43
2022/11/01 13:47:54;;;;;;;;;10.00;8.00;;;;;;;;5033837;28;51182;-45
2022/11/01 13:50:47;;;;;;;;;16.00;13.00;;;;;;;;5024221;28;51121;-46
2022/11/01 13:53:32;;;;;;;;;19.25;14.00;;;;;;;;5026877;28;51234;-46
2022/11/01 13:56:19;;;;;;;;;15.75;12.25;;;;;;;;5021820;28;51172;-45
2022/11/01 13:59:23;;;;;;;;;19.75;14.25;;;;;;;;5019611;28;51167;-44
2022/11/01 14:02:22;;;;;;;;;11.50;10.75;;;;;;;;4991419;28;51366;-45
2022/11/01 14:05:08;;;;;;;;;23.25;11.75;;;;;;;;5026013;28;51187;-46
2022/11/01 14:07:52;;;;;;;;;20.25;13.75;;;;;;;;5019559;28;51252;-44
2022/11/01 14:10:37;;;;;;;;;18.25;13.25;;;;;;;;5037300;28;51562;-49
2022/11/01 14:13:29;;;;;;;;;12.75;11.50;;;;;;;;5037872;28;51297;-41
2022/11/01 14:16:14;;;;;;;;;15.25;13.25;;;;;;;;5021271;28;51229;-45
2022/11/01 14:19:01;;;;;;;;;15.25;12.00;;;;;;;;5019695;28;51331;-43
2022/11/01 14:21:46;;;;;;;;;16.00;10.75;;;;;;;;5021078;28;51476;-40
2022/11/01 14:24:31;;;;;;;;;11.00;9.25;;;;;;;;5020447;28;51347;-43
2022/11/01 14:27:20;;;;;;;;;15.50;11.50;;;;;;;;5016674;28;51857;-41
2022/11/01 14:30:15;;;;;;;;;14.00;10.50;;;;;;;;5039604;28;51139;-45
2022/11/01 14:33:01;;;;;;;;;12.50;9.75;;;;;;;;5038021;28;52231;-46
2022/11/01 14:35:54;;;;;;;;;9.50;9.50;;;;;;;;5020987;28;51136;-47
2022/11/01 14:38:59;;;;;;;;;10.00;9.50;;;;;;;;5024931;28;51491;-40
2022/11/01 14:41:43;;;;;;;;;10.75;9.25;;;;;;;;5019251;28;51509;-48
2022/11/01 14:44:31;;;;;;;;;13.00;10.75;;;;;;;;5037352;28;51242;-43
2022/11/01 14:47:36;;;;;;;;;6.50;6.50;;;;;;;;5036884;28;51430;-44
2022/11/01 14:50:37;;;;;;;;;15.25;11.75;;;;;;;;5038937;28;51087;-45
2022/11/01 14:53:26;;;;;;;;;12.00;8.50;;;;;;;;5026322;28;51360;-44
2022/11/01 14:56:21;;;;;;;;;9.00;9.00;;;;;;;;5036961;28;50998;-41
2022/11/01 14:59:12;;;;;;;;;13.00;8.75;;;;;;;;5033705;28;52998;-46
2022/11/01 15:01:59;;;;;;;;;12.00;8.75;;;;;;;;5018449;28;51174;-44
2022/11/01 15:04:44;;;;;;;;;12.75;6.25;;;;;;;;5021729;28;51191;-46
2022/11/01 15:07:31;;;;;;;;;15.50;7.50;;;;;;;;5020242;28;51417;-48
2022/11/01 15:10:16;;;;;;;;;12.50;12.00;;;;;;;;5036393;28;51064;-43
2022/11/01 15:13:01;;;;;;;;;17.00;14.00;;;;;;;;5038062;28;51516;-45
2022/11/01 15:15:50;;;;;;;;;11.75;11.00;;;;;;;;5038370;28;51362;-44
2022/11/01 15:18:37;;;;;;;;;9.00;8.25;;;;;;;;5025376;28;51147;-42
2022/11/01 15:21:22;;;;;;;;;15.00;10.00;;;;;;;;5026853;28;51959;-43
2022/11/01 15:24:17;;;;;;;;;9.25;9.25;;;;;;;;5028504;28;51143;-43
2022/11/01 15:27:13;;;;;;;;;13.00;9.50;;;;;;;;5020628;28;51477;-44
2022/11/01 15:29:57;;;;;;;;;3.00;3.00;;;;;;;;5025597;28;51167;-42
2022/11/01 15:32:41;;;;;;;;;9.50;6.50;;;;;;;;5020926;28;51579;-47
2022/11/01 15:35:25;;;;;;;;;6.50;4.25;;;;;;;;5026239;28;52119;-41
2022/11/01 15:38:17;;;;;;;;;8.00;6.00;;;;;;;;5025482;28;51504;-45
2022/11/01 15:41:24;;;;;;;;;7.00;7.00;;;;;;;;5028192;28;51409;-43
2022/11/01 15:44:18;;;;;;;;;13.75;10.75;;;;;;;;5028668;28;51451;-47
2022/11/01 15:47:04;;;;;;;;;8.25;7.00;;;;;;;;5020163;28;51176;-47
2022/11/01 15:49:52;;;;;;;;;14.00;10.00;;;;;;;;5032537;28;51177;-41
2022/11/01 15:52:37;;;;;;;;;13.50;9.00;;;;;;;;5030489;28;51217;-45
2022/11/01 15:55:30;;;;;;;;;13.25;9.25;;;;;;;;5032117;28;51211;-46
2022/11/01 15:58:20;;;;;;;;;12.25;10.00;;;;;;;;5031340;28;51137;-45
2022/11/01 16:01:14;;;;;;;;;12.00;10.50;;;;;;;;5031458;28;51080;-44
2022/11/01 16:03:58;;;;;;;;;10.75;9.50;;;;;;;;5032756;28;51181;-43
2022/11/01 16:06:42;;;;;;;;;11.50;8.50;;;;;;;;5031870;28;51240;-43
2022/11/01 16:09:30;;;;;;;;;8.50;4.25;;;;;;;;5030461;28;51356;-46
2022/11/01 16:12:22;;;;;;;;;9.00;7.00;;;;;;;;5037113;28;51205;-42
2022/11/01 16:15:18;;;;;;;;;13.00;8.75;;;;;;;;5031529;28;52606;-43
2022/11/01 16:18:13;;;;;;;;;21.50;18.50;;;;;;;;5027562;28;51176;-41
2022/11/01 16:21:21;;;;;;;;;14.25;10.75;;;;;;;;5028672;28;51115;-41
2022/11/01 16:24:08;;;;;;;;;12.50;11.00;;;;;;;;5033017;28;51253;-43
2022/11/01 16:26:54;;;;;;;;;11.75;11.00;;;;;;;;5033049;28;51109;-43
2022/11/01 16:29:42;;;;;;;;;13.00;12.25;;;;;;;;5029620;28;51544;-44